createdAt,value
2023-02-19T00:24:12.462Z,10.2
2023-02-19T00:54:13.295Z,10.7
2023-02-19T01:24:14.928Z,9.5
2023-02-19T01:54:14.052Z,11.2
2023-02-19T02:24:38.206Z,10.4
2023-02-19T02:54:26.936Z,9.1
2023-02-19T03:24:26.602Z,8.5
2023-02-19T03:54:17.356Z,9.5
2023-02-19T04:24:18.537Z,10.1
2023-02-19T04:54:17.067Z,10.2
2023-02-19T05:24:17.075Z,11.9
2023-02-19T05:54:18.199Z,12
2023-02-19T06:24:18.752Z,12.7
2023-02-19T06:54:19.516Z,11.4
2023-02-19T07:24:21.401Z,12.9
2023-02-19T07:54:21.448Z,11.7
2023-02-19T08:24:22.552Z,10.8
2023-02-19T08:54:25.040Z,7.6
2023-02-19T09:24:24.575Z,5.3
2023-02-19T09:54:28.631Z,3
2023-02-19T10:24:29.112Z,4.7
2023-02-19T10:54:29.936Z,2.9
2023-02-19T11:24:33.671Z,1.8
2023-02-19T11:54:44.452Z,2
2023-02-19T12:24:43.712Z,1.4
2023-02-19T12:54:33.093Z,1.5
2023-02-19T13:24:36.210Z,1.2
2023-02-19T13:54:35.747Z,1.3
2023-02-19T14:24:33.611Z,1.3
2023-02-19T14:54:43.553Z,2.5
2023-02-19T15:27:47.448Z,1.2
2023-02-19T15:57:48.403Z,1.8
2023-02-19T16:27:48.102Z,1.4
2023-02-19T16:57:46.016Z,1.7
2023-02-19T17:27:46.506Z,2.8
2023-02-19T17:57:48.520Z,1.1
2023-02-19T18:27:53.119Z,3.3
2023-02-19T18:57:50.213Z,3.1
2023-02-19T19:27:51.592Z,2.6
2023-02-19T19:57:50.041Z,2.5
2023-02-19T20:27:54.704Z,2.7
2023-02-19T20:57:57.198Z,3.1
2023-02-19T21:27:51.360Z,5.4
2023-02-19T21:57:51.833Z,8
2023-02-19T22:27:58.426Z,12.9
2023-02-19T22:57:56.641Z,9.5
2023-02-19T23:27:53.273Z,9.7
2023-02-19T23:57:56.299Z,12.8
